Time;durP1;ratioP1;P1;durP2;ratioP2;P2;SDS_P1;SDS_P2;PMS_P1;PMS_P2;Temp;Humidity;BMP_temperature;BMP_pressure;BME280_temperature;BME280_humidity;BME280_pressure;Samples;Min_cycle;Max_cycle;Signal;HPM_P1;HPM_P2
2022/12/20 00:00:48;;;;;;;5.70;3.57;;;;;;;;;;5062973;28;20043;-66
2022/12/20 00:03:14;;;;;;;5.60;3.70;;;;;;;;;;5069096;28;20044;-66
2022/12/20 00:05:41;;;;;;;10.97;3.80;;;;;;;;;;5057996;28;20124;-66
2022/12/20 00:08:08;;;;;;;5.93;4.10;;;;;;;;;;5048084;28;20045;-66
2022/12/20 00:10:35;;;;;;;8.80;4.20;;;;;;;;;;5047743;28;20076;-66
2022/12/20 00:13:01;;;;;;;8.47;3.60;;;;;;;;;;5049186;28;20071;-66
2022/12/20 00:15:28;;;;;;;6.57;3.77;;;;;;;;;;5049043;28;20084;-66
2022/12/20 00:17:54;;;;;;;6.67;3.43;;;;;;;;;;5049206;28;20056;-66
2022/12/20 00:20:20;;;;;;;4.93;3.33;;;;;;;;;;5049309;28;20037;-65
2022/12/20 00:22:46;;;;;;;7.03;3.67;;;;;;;;;;5048157;28;20415;-66
2022/12/20 00:25:12;;;;;;;6.33;3.33;;;;;;;;;;5049407;28;20073;-65
2022/12/20 00:27:38;;;;;;;7.93;3.43;;;;;;;;;;5049150;28;20076;-65
2022/12/20 00:30:05;;;;;;;8.33;4.17;;;;;;;;;;5066218;28;20036;-65
2022/12/20 00:32:31;;;;;;;5.63;3.40;;;;;;;;;;5069142;28;20580;-66
2022/12/20 00:34:57;;;;;;;5.27;3.57;;;;;;;;;;5068750;28;20553;-65
2022/12/20 00:37:23;;;;;;;4.60;2.70;;;;;;;;;;5068193;28;20044;-65
2022/12/20 00:39:49;;;;;;;4.87;3.10;;;;;;;;;;5068743;28;20056;-65
2022/12/20 00:42:15;;;;;;;9.07;3.87;;;;;;;;;;5060339;28;20048;-66
2022/12/20 00:44:41;;;;;;;5.33;3.33;;;;;;;;;;5048137;28;20497;-65
2022/12/20 00:47:07;;;;;;;5.37;3.10;;;;;;;;;;5048611;28;20045;-65
2022/12/20 00:49:33;;;;;;;5.30;3.30;;;;;;;;;;5048590;28;20513;-66
2022/12/20 00:51:59;;;;;;;4.17;2.83;;;;;;;;;;5048820;28;20051;-65
2022/12/20 00:54:25;;;;;;;5.30;3.30;;;;;;;;;;5048231;28;20036;-65
2022/12/20 00:56:51;;;;;;;5.40;3.00;;;;;;;;;;5048553;28;20392;-65
2022/12/20 00:59:17;;;;;;;5.97;3.40;;;;;;;;;;5048442;28;20048;-65
2022/12/20 01:01:44;;;;;;;7.77;3.50;;;;;;;;;;5048028;28;20106;-65
2022/12/20 01:04:10;;;;;;;5.40;3.87;;;;;;;;;;5048723;28;20044;-66
2022/12/20 01:06:36;;;;;;;5.53;3.33;;;;;;;;;;5048461;28;20079;-65
2022/12/20 01:09:02;;;;;;;6.10;3.60;;;;;;;;;;5046604;28;20110;-66
2022/12/20 01:11:37;;;;;;;5.03;3.13;;;;;;;;;;5048080;28;20052;-65
2022/12/20 01:14:08;;;;;;;5.40;3.27;;;;;;;;;;5048183;28;20052;-65
2022/12/20 01:16:38;;;;;;;5.10;2.97;;;;;;;;;;5048527;28;20506;-65
2022/12/20 01:19:04;;;;;;;4.67;3.10;;;;;;;;;;5047836;28;20053;-65
2022/12/20 01:21:30;;;;;;;6.13;2.83;;;;;;;;;;5048337;28;20128;-65
2022/12/20 01:23:56;;;;;;;6.47;3.20;;;;;;;;;;5048347;28;20048;-65
2022/12/20 01:26:24;;;;;;;5.73;2.93;;;;;;;;;;5047538;28;20865;-65
2022/12/20 01:28:52;;;;;;;4.50;3.40;;;;;;;;;;5048301;28;20045;-65
2022/12/20 01:31:19;;;;;;;6.87;2.80;;;;;;;;;;5048207;28;20037;-65
2022/12/20 01:33:46;;;;;;;5.47;3.73;;;;;;;;;;5048324;28;20045;-66
2022/12/20 01:36:14;;;;;;;6.87;3.20;;;;;;;;;;5047623;28;20045;-65
2022/12/20 01:38:40;;;;;;;8.10;3.17;;;;;;;;;;5048211;28;20072;-65
2022/12/20 01:41:06;;;;;;;7.33;3.20;;;;;;;;;;5047413;28;20041;-66
2022/12/20 01:43:44;;;;;;;6.37;2.90;;;;;;;;;;5048141;28;20499;-65
2022/12/20 01:46:11;;;;;;;6.47;3.20;;;;;;;;;;5048174;28;20063;-65
2022/12/20 01:48:37;;;;;;;7.83;3.20;;;;;;;;;;5048114;28;20045;-66
2022/12/20 01:51:03;;;;;;;6.93;3.67;;;;;;;;;;5046511;28;20053;-65
2022/12/20 01:53:30;;;;;;;4.67;2.53;;;;;;;;;;5046620;28;20438;-65
2022/12/20 01:55:56;;;;;;;5.80;3.07;;;;;;;;;;5049355;28;20586;-65
2022/12/20 01:58:22;;;;;;;4.40;2.73;;;;;;;;;;5051751;28;20053;-65
2022/12/20 02:00:48;;;;;;;3.87;2.70;;;;;;;;;;5051856;28;20045;-66
2022/12/20 02:03:16;;;;;;;5.43;3.17;;;;;;;;;;5052057;28;20095;-66
2022/12/20 02:05:44;;;;;;;5.23;3.30;;;;;;;;;;5051809;28;20049;-66
2022/12/20 02:08:12;;;;;;;6.17;2.57;;;;;;;;;;5052091;28;20170;-64
2022/12/20 02:10:49;;;;;;;7.50;3.50;;;;;;;;;;5051761;28;20049;-64
2022/12/20 02:13:33;;;;;;;5.60;2.77;;;;;;;;;;5051371;28;20051;-64
2022/12/20 02:15:59;;;;;;;8.40;3.17;;;;;;;;;;5051647;28;20045;-64
2022/12/20 02:18:28;;;;;;;5.53;3.13;;;;;;;;;;5054186;28;20119;-64
2022/12/20 02:21:09;;;;;;;6.30;3.47;;;;;;;;;;5071360;28;20076;-64
2022/12/20 02:23:54;;;;;;;5.73;2.60;;;;;;;;;;5070098;28;20045;-64
2022/12/20 02:26:33;;;;;;;6.10;3.17;;;;;;;;;;5071345;28;20753;-64
2022/12/20 02:29:18;;;;;;;5.97;2.83;;;;;;;;;;5071161;28;20052;-64
2022/12/20 02:31:50;;;;;;;6.27;2.70;;;;;;;;;;5070448;28;20063;-65
2022/12/20 02:34:17;;;;;;;6.37;3.50;;;;;;;;;;5062737;28;20573;-64
2022/12/20 02:36:43;;;;;;;4.67;3.20;;;;;;;;;;5051222;28;20284;-65
2022/12/20 02:39:14;;;;;;;7.07;3.40;;;;;;;;;;5051272;28;20048;-65
2022/12/20 02:41:50;;;;;;;5.87;3.53;;;;;;;;;;5051033;28;20159;-65
2022/12/20 02:47:04;;;;;;;6.27;3.60;;;;;;;;;;5050618;28;20077;-65
2022/12/20 02:49:32;;;;;;;5.80;3.83;;;;;;;;;;5049897;28;20102;-65
2022/12/20 02:52:00;;;;;;;11.93;4.40;;;;;;;;;;5049912;28;20045;-66
2022/12/20 02:54:27;;;;;;;8.37;4.10;;;;;;;;;;5062104;28;20068;-66
2022/12/20 02:57:00;;;;;;;9.80;4.17;;;;;;;;;;5054144;28;20136;-67
2022/12/20 02:59:36;;;;;;;7.60;4.90;;;;;;;;;;5048866;28;20068;-67
2022/12/20 03:02:02;;;;;;;10.10;5.27;;;;;;;;;;5049047;28;20167;-66
2022/12/20 03:04:29;;;;;;;9.87;5.37;;;;;;;;;;5050547;28;20045;-66
2022/12/20 03:06:58;;;;;;;9.53;5.43;;;;;;;;;;5050002;28;20063;-66
2022/12/20 03:09:24;;;;;;;10.60;5.57;;;;;;;;;;5049690;28;20052;-65
2022/12/20 03:11:50;;;;;;;10.00;5.50;;;;;;;;;;5050062;28;20045;-66
2022/12/20 03:14:16;;;;;;;9.67;5.10;;;;;;;;;;5050088;28;20399;-66
2022/12/20 03:16:42;;;;;;;9.13;5.33;;;;;;;;;;5049822;28;20052;-66
2022/12/20 03:19:09;;;;;;;7.70;5.50;;;;;;;;;;5049100;28;20049;-66
2022/12/20 03:21:35;;;;;;;8.97;6.17;;;;;;;;;;5050219;28;20147;-66
2022/12/20 03:24:01;;;;;;;10.03;6.00;;;;;;;;;;5050278;28;20052;-65
2022/12/20 03:26:27;;;;;;;9.80;6.07;;;;;;;;;;5049826;28;20045;-65
2022/12/20 03:28:53;;;;;;;8.73;4.93;;;;;;;;;;5050275;28;20052;-65
2022/12/20 03:31:19;;;;;;;7.43;5.03;;;;;;;;;;5049915;28;20060;-65
2022/12/20 03:33:45;;;;;;;10.60;5.83;;;;;;;;;;5050204;28;20048;-65
2022/12/20 03:36:11;;;;;;;11.07;5.93;;;;;;;;;;5048994;28;20048;-65
2022/12/20 03:38:37;;;;;;;8.13;4.70;;;;;;;;;;5049559;28;20506;-65
2022/12/20 03:41:03;;;;;;;8.97;5.27;;;;;;;;;;5049440;28;20053;-65
2022/12/20 03:43:30;;;;;;;10.30;5.53;;;;;;;;;;5049832;28;20051;-65
2022/12/20 03:45:56;;;;;;;12.93;6.00;;;;;;;;;;5049499;28;20088;-65
2022/12/20 03:48:22;;;;;;;11.17;5.53;;;;;;;;;;5049056;28;20535;-65
2022/12/20 03:50:48;;;;;;;9.50;5.63;;;;;;;;;;5049598;28;20056;-65
2022/12/20 03:53:15;;;;;;;8.73;5.13;;;;;;;;;;5048527;28;20048;-65
2022/12/20 03:55:41;;;;;;;11.97;7.40;;;;;;;;;;5049442;28;20836;-65
2022/12/20 03:58:07;;;;;;;9.47;5.93;;;;;;;;;;5049615;28;20052;-65
2022/12/20 04:00:33;;;;;;;8.17;5.70;;;;;;;;;;5049217;28;20080;-65
2022/12/20 04:02:59;;;;;;;11.10;6.33;;;;;;;;;;5049461;28;20045;-65
2022/12/20 04:05:25;;;;;;;12.57;6.23;;;;;;;;;;5049065;28;20044;-65
2022/12/20 04:07:51;;;;;;;13.30;6.43;;;;;;;;;;5049165;28;20072;-65
2022/12/20 04:10:18;;;;;;;11.03;6.27;;;;;;;;;;5049293;28;20480;-65
2022/12/20 04:12:44;;;;;;;10.70;6.70;;;;;;;;;;5049058;28;20199;-65
2022/12/20 04:15:10;;;;;;;10.50;6.10;;;;;;;;;;5049184;28;20048;-65
2022/12/20 04:17:36;;;;;;;11.90;6.07;;;;;;;;;;5051601;28;20483;-65
2022/12/20 04:20:17;;;;;;;10.50;6.23;;;;;;;;;;5068994;28;20430;-65
2022/12/20 04:22:46;;;;;;;10.23;6.17;;;;;;;;;;5069371;28;20071;-65
2022/12/20 04:25:12;;;;;;;10.90;5.63;;;;;;;;;;5069232;28;20131;-65
2022/12/20 04:27:38;;;;;;;10.17;6.30;;;;;;;;;;5068580;28;20044;-66
2022/12/20 04:30:04;;;;;;;8.70;5.30;;;;;;;;;;5068546;28;20052;-65
2022/12/20 04:32:30;;;;;;;8.80;5.03;;;;;;;;;;5068700;28;20048;-65
2022/12/20 04:34:56;;;;;;;9.87;5.20;;;;;;;;;;5067854;28;20064;-67
2022/12/20 04:37:22;;;;;;;9.03;4.87;;;;;;;;;;5068510;28;20041;-67
2022/12/20 04:39:49;;;;;;;8.10;5.30;;;;;;;;;;5067865;28;20101;-67
2022/12/20 04:42:15;;;;;;;8.37;5.17;;;;;;;;;;5067625;28;20048;-67
2022/12/20 04:44:41;;;;;;;6.63;4.47;;;;;;;;;;5068598;28;20064;-66
2022/12/20 04:47:08;;;;;;;7.33;4.97;;;;;;;;;;5068242;28;20524;-67
2022/12/20 04:49:36;;;;;;;9.07;5.60;;;;;;;;;;5065747;28;20143;-67
2022/12/20 04:54:46;;;;;;;8.67;4.63;;;;;;;;;;5048764;28;20049;-67
2022/12/20 04:57:13;;;;;;;6.33;3.87;;;;;;;;;;5048745;28;20048;-66
2022/12/20 04:59:39;;;;;;;8.37;4.67;;;;;;;;;;5047116;28;20081;-66
2022/12/20 05:02:05;;;;;;;7.17;4.20;;;;;;;;;;5048566;28;20049;-67
2022/12/20 05:04:31;;;;;;;6.03;4.43;;;;;;;;;;5048538;28;20052;-67
2022/12/20 05:06:57;;;;;;;9.07;4.63;;;;;;;;;;5048618;28;20044;-67
2022/12/20 05:09:23;;;;;;;7.50;3.97;;;;;;;;;;5047942;28;20091;-66
2022/12/20 05:11:49;;;;;;;7.63;4.60;;;;;;;;;;5047941;28;20503;-66
2022/12/20 05:14:15;;;;;;;6.77;4.40;;;;;;;;;;5048233;28;20495;-65
2022/12/20 05:16:41;;;;;;;6.87;4.23;;;;;;;;;;5048203;28;20049;-66
2022/12/20 05:19:07;;;;;;;7.03;3.97;;;;;;;;;;5057706;28;20052;-66
2022/12/20 05:27:03;;;;;;;5.60;3.87;;;;;;;;;;5068236;28;20052;-65
2022/12/20 05:29:29;;;;;;;9.83;5.43;;;;;;;;;;5067843;28;20124;-66
2022/12/20 05:31:55;;;;;;;5.30;3.53;;;;;;;;;;5070830;28;20507;-66
2022/12/20 05:34:21;;;;;;;7.07;3.27;;;;;;;;;;5067013;28;20570;-66
2022/12/20 05:36:47;;;;;;;5.43;3.93;;;;;;;;;;5050734;28;20995;-66
2022/12/20 05:39:13;;;;;;;10.63;3.87;;;;;;;;;;5051937;28;20049;-66
2022/12/20 05:41:39;;;;;;;7.77;3.77;;;;;;;;;;5052069;28;20053;-66
2022/12/20 05:44:06;;;;;;;6.97;3.13;;;;;;;;;;5051898;28;20057;-66
2022/12/20 05:46:32;;;;;;;6.43;3.47;;;;;;;;;;5051759;28;20052;-66
2022/12/20 05:48:58;;;;;;;6.47;3.57;;;;;;;;;;5051118;28;20053;-66
2022/12/20 05:51:24;;;;;;;6.90;3.57;;;;;;;;;;5050524;28;20435;-65
2022/12/20 05:53:50;;;;;;;6.07;3.93;;;;;;;;;;5049159;28;20041;-65
2022/12/20 05:56:16;;;;;;;7.10;3.20;;;;;;;;;;5050333;28;20045;-66
2022/12/20 05:58:43;;;;;;;6.23;3.40;;;;;;;;;;5050030;28;20045;-66
2022/12/20 06:01:09;;;;;;;7.97;3.47;;;;;;;;;;5050275;28;20139;-66
2022/12/20 06:03:35;;;;;;;5.40;2.83;;;;;;;;;;5050437;28;20048;-66
2022/12/20 06:06:01;;;;;;;6.80;4.13;;;;;;;;;;5050086;28;20048;-65
2022/12/20 06:08:27;;;;;;;5.60;3.60;;;;;;;;;;5070588;28;20044;-66
2022/12/20 06:10:53;;;;;;;5.90;3.37;;;;;;;;;;5064603;28;20132;-66
2022/12/20 06:13:19;;;;;;;4.87;3.10;;;;;;;;;;5051152;28;20041;-66
2022/12/20 06:15:45;;;;;;;7.03;4.03;;;;;;;;;;5050989;28;20056;-66
2022/12/20 06:18:12;;;;;;;6.93;3.33;;;;;;;;;;5050824;28;20045;-66
2022/12/20 06:20:38;;;;;;;6.80;3.43;;;;;;;;;;5051080;28;20625;-66
2022/12/20 06:23:06;;;;;;;7.07;3.90;;;;;;;;;;5050145;28;20107;-66
2022/12/20 06:25:32;;;;;;;7.30;4.03;;;;;;;;;;5051281;28;20150;-66
2022/12/20 06:27:58;;;;;;;9.27;5.10;;;;;;;;;;5050512;28;20041;-66
2022/12/20 06:30:24;;;;;;;7.90;6.03;;;;;;;;;;5056184;28;20045;-67
2022/12/20 06:32:50;;;;;;;9.83;5.80;;;;;;;;;;5072274;28;20391;-67
2022/12/20 06:35:16;;;;;;;11.37;5.43;;;;;;;;;;5060124;28;20495;-67
2022/12/20 06:37:43;;;;;;;13.63;5.77;;;;;;;;;;5051146;28;20056;-67
2022/12/20 06:40:10;;;;;;;9.43;5.93;;;;;;;;;;5050851;28;20044;-67
2022/12/20 06:42:36;;;;;;;11.57;6.07;;;;;;;;;;5049350;28;20470;-67
2022/12/20 06:45:02;;;;;;;11.07;6.77;;;;;;;;;;5049303;28;20127;-67
2022/12/20 06:47:28;;;;;;;8.53;6.30;;;;;;;;;;5051230;28;20423;-67
2022/12/20 06:49:54;;;;;;;14.43;6.63;;;;;;;;;;5051068;28;20048;-67
2022/12/20 06:52:20;;;;;;;11.17;6.63;;;;;;;;;;5055955;28;20453;-67
2022/12/20 06:54:46;;;;;;;9.70;6.37;;;;;;;;;;5070285;28;20040;-67
2022/12/20 06:57:13;;;;;;;10.50;6.60;;;;;;;;;;5070418;28;20475;-66
2022/12/20 06:59:39;;;;;;;9.93;6.23;;;;;;;;;;5058217;28;20051;-66
2022/12/20 07:02:05;;;;;;;11.37;6.30;;;;;;;;;;5052167;28;20048;-66
2022/12/20 07:04:31;;;;;;;9.57;5.73;;;;;;;;;;5050374;28;20077;-67
2022/12/20 07:06:57;;;;;;;11.47;6.67;;;;;;;;;;5052345;28;20470;-67
2022/12/20 07:09:23;;;;;;;9.13;6.93;;;;;;;;;;5058672;28;20155;-66
2022/12/20 07:11:49;;;;;;;7.10;6.07;;;;;;;;;;5058580;28;20483;-66
2022/12/20 07:14:15;;;;;;;10.63;6.67;;;;;;;;;;5067836;28;20119;-66
2022/12/20 07:16:42;;;;;;;10.60;6.30;;;;;;;;;;5059995;28;20037;-67
2022/12/20 07:19:11;;;;;;;13.43;6.87;;;;;;;;;;5053777;28;20132;-66
2022/12/20 07:21:37;;;;;;;10.17;6.97;;;;;;;;;;5064550;28;20047;-66
2022/12/20 07:24:04;;;;;;;12.37;7.17;;;;;;;;;;5057102;28;20137;-67
2022/12/20 07:26:31;;;;;;;11.07;6.67;;;;;;;;;;5053670;28;20049;-66
2022/12/20 07:28:57;;;;;;;10.10;6.40;;;;;;;;;;5056429;28;20545;-67
2022/12/20 07:31:23;;;;;;;10.07;6.63;;;;;;;;;;5068165;28;20060;-66
2022/12/20 07:33:49;;;;;;;12.13;6.63;;;;;;;;;;5068248;28;20404;-66
2022/12/20 07:36:15;;;;;;;8.57;5.83;;;;;;;;;;5052052;28;20045;-67
2022/12/20 07:38:41;;;;;;;9.87;6.53;;;;;;;;;;5067970;28;20041;-67
2022/12/20 07:41:08;;;;;;;8.87;5.20;;;;;;;;;;5067594;28;20381;-66
2022/12/20 07:43:34;;;;;;;10.40;5.40;;;;;;;;;;5069114;28;20102;-66
2022/12/20 07:46:01;;;;;;;8.23;5.00;;;;;;;;;;5069464;28;20434;-66
2022/12/20 07:48:27;;;;;;;8.63;4.20;;;;;;;;;;5067657;28;20461;-67
2022/12/20 07:50:53;;;;;;;7.80;4.57;;;;;;;;;;5067745;28;20050;-66
2022/12/20 07:53:20;;;;;;;7.03;4.60;;;;;;;;;;5066875;28;20060;-66
2022/12/20 07:55:47;;;;;;;6.70;3.97;;;;;;;;;;5061696;28;20480;-66
2022/12/20 07:58:14;;;;;;;10.33;5.67;;;;;;;;;;5065834;28;20075;-66
2022/12/20 08:00:40;;;;;;;7.13;3.70;;;;;;;;;;5068060;28;20452;-66
2022/12/20 08:03:07;;;;;;;6.73;4.47;;;;;;;;;;5066648;28;20473;-66
2022/12/20 08:05:35;;;;;;;6.70;4.20;;;;;;;;;;5068806;28;20044;-66
2022/12/20 08:08:02;;;;;;;8.57;4.70;;;;;;;;;;5067891;28;20048;-66
2022/12/20 08:10:29;;;;;;;4.83;3.60;;;;;;;;;;5066915;28;20128;-66
2022/12/20 08:12:55;;;;;;;7.03;4.53;;;;;;;;;;5066051;28;20036;-66
2022/12/20 08:15:21;;;;;;;6.60;3.83;;;;;;;;;;5051182;28;20044;-66
2022/12/20 08:17:48;;;;;;;5.53;3.70;;;;;;;;;;5066532;28;20048;-66
2022/12/20 08:20:14;;;;;;;6.63;3.07;;;;;;;;;;5068376;28;20040;-66
2022/12/20 08:22:40;;;;;;;7.37;3.47;;;;;;;;;;5066661;28;20131;-66
2022/12/20 08:25:07;;;;;;;10.57;3.90;;;;;;;;;;5067726;28;20068;-66
2022/12/20 08:27:33;;;;;;;6.23;4.27;;;;;;;;;;5068907;28;20051;-66
2022/12/20 08:29:59;;;;;;;10.50;3.90;;;;;;;;;;5059937;28;20143;-66
2022/12/20 08:32:25;;;;;;;6.33;3.93;;;;;;;;;;5058148;28;20044;-66
2022/12/20 08:34:51;;;;;;;7.90;3.53;;;;;;;;;;5067328;28;20040;-66
2022/12/20 08:37:18;;;;;;;6.67;3.17;;;;;;;;;;5067175;28;20049;-66
2022/12/20 08:39:44;;;;;;;6.30;4.07;;;;;;;;;;5067907;28;20109;-66
2022/12/20 08:42:10;;;;;;;6.13;3.83;;;;;;;;;;5060589;28;20414;-66
2022/12/20 08:44:36;;;;;;;9.67;3.50;;;;;;;;;;5051840;28;20060;-66
2022/12/20 08:47:02;;;;;;;8.17;3.20;;;;;;;;;;5065904;28;20503;-67
2022/12/20 08:49:28;;;;;;;7.33;3.33;;;;;;;;;;5062148;28;20048;-66
2022/12/20 08:51:54;;;;;;;6.63;3.20;;;;;;;;;;5068542;28;20040;-66
2022/12/20 08:54:20;;;;;;;7.93;3.90;;;;;;;;;;5066378;28;20047;-66
2022/12/20 08:56:46;;;;;;;9.57;3.97;;;;;;;;;;5057103;28;20048;-66
2022/12/20 08:59:12;;;;;;;6.77;3.40;;;;;;;;;;5066091;28;20051;-66
2022/12/20 09:01:39;;;;;;;5.93;3.77;;;;;;;;;;5048056;28;20041;-66
2022/12/20 09:04:05;;;;;;;7.37;3.83;;;;;;;;;;5054818;28;20167;-66
2022/12/20 09:06:34;;;;;;;5.57;3.83;;;;;;;;;;5045360;28;20048;-66
2022/12/20 09:09:00;;;;;;;6.27;3.03;;;;;;;;;;5056759;28;20418;-66
2022/12/20 09:11:27;;;;;;;8.17;4.57;;;;;;;;;;5045863;28;20538;-67
2022/12/20 09:13:54;;;;;;;9.77;3.63;;;;;;;;;;5047650;28;20048;-66
2022/12/20 09:16:21;;;;;;;11.60;4.17;;;;;;;;;;5047244;28;20084;-67
2022/12/20 09:18:48;;;;;;;6.53;4.20;;;;;;;;;;5047200;28;20049;-67
2022/12/20 09:21:14;;;;;;;8.47;3.50;;;;;;;;;;5047673;28;20387;-67
2022/12/20 09:23:40;;;;;;;6.70;3.27;;;;;;;;;;5046578;28;20041;-67
2022/12/20 09:26:08;;;;;;;9.97;3.67;;;;;;;;;;5050163;28;20045;-67
2022/12/20 09:28:34;;;;;;;7.10;4.03;;;;;;;;;;5047536;28;20407;-67
2022/12/20 09:31:01;;;;;;;8.27;3.90;;;;;;;;;;5046707;28;20099;-67
2022/12/20 09:33:29;;;;;;;8.50;3.77;;;;;;;;;;5047698;28;20045;-68
2022/12/20 09:35:55;;;;;;;7.50;4.03;;;;;;;;;;5065024;28;20060;-67
2022/12/20 09:38:21;;;;;;;9.20;3.47;;;;;;;;;;5061308;28;20051;-67
2022/12/20 09:40:49;;;;;;;5.97;3.93;;;;;;;;;;5049481;28;20055;-67
2022/12/20 09:43:16;;;;;;;5.80;3.97;;;;;;;;;;5067655;28;20502;-67
2022/12/20 09:45:42;;;;;;;6.77;3.83;;;;;;;;;;5067920;28;20126;-67
2022/12/20 09:48:19;;;;;;;6.03;3.37;;;;;;;;;;5051151;28;20060;-67
2022/12/20 09:51:00;;;;;;;8.83;3.63;;;;;;;;;;5048365;28;20049;-67
2022/12/20 09:53:37;;;;;;;12.10;4.20;;;;;;;;;;5051813;28;20048;-67
2022/12/20 09:56:05;;;;;;;10.33;4.30;;;;;;;;;;5062008;28;20682;-67
2022/12/20 09:58:43;;;;;;;6.93;3.73;;;;;;;;;;5062286;28;20041;-67
2022/12/20 10:01:36;;;;;;;10.67;4.30;;;;;;;;;;5060840;28;20049;-67
2022/12/20 10:04:04;;;;;;;11.00;4.93;;;;;;;;;;5051264;28;20080;-67
2022/12/20 10:06:38;;;;;;;11.63;4.70;;;;;;;;;;5046603;28;20083;-67
2022/12/20 10:09:10;;;;;;;12.10;5.17;;;;;;;;;;5047307;28;20131;-68
2022/12/20 10:11:36;;;;;;;12.23;6.20;;;;;;;;;;5047419;28;20128;-67
2022/12/20 10:14:02;;;;;;;9.43;5.70;;;;;;;;;;5047540;28;20135;-67
2022/12/20 10:16:37;;;;;;;12.57;5.00;;;;;;;;;;5046696;28;20545;-67
2022/12/20 10:19:23;;;;;;;12.83;6.53;;;;;;;;;;5051086;28;20061;-67
2022/12/20 10:21:56;;;;;;;9.87;5.37;;;;;;;;;;5048486;28;20064;-67
2022/12/20 10:24:29;;;;;;;14.23;5.90;;;;;;;;;;5050201;28;20055;-67
2022/12/20 10:26:55;;;;;;;9.30;5.63;;;;;;;;;;5050851;28;20049;-68
2022/12/20 10:29:21;;;;;;;12.53;5.80;;;;;;;;;;5049179;28;20048;-67
2022/12/20 10:31:58;;;;;;;12.50;5.60;;;;;;;;;;5032332;28;20049;-67
2022/12/20 10:34:24;;;;;;;10.60;6.00;;;;;;;;;;5050371;28;20419;-67
2022/12/20 10:37:09;;;;;;;14.07;5.83;;;;;;;;;;5048547;28;20047;-68
2022/12/20 10:39:43;;;;;;;13.03;6.00;;;;;;;;;;5050378;28;20410;-67
2022/12/20 10:42:09;;;;;;;;;;;;;;;;;;5050769;28;20045;-67
2022/12/20 10:44:35;;;;;;;11.60;6.53;;;;;;;;;;5050306;28;19978;-67
2022/12/20 10:47:01;;;;;;;14.07;6.80;;;;;;;;;;5050166;28;20041;-68
2022/12/20 10:49:30;;;;;;;10.33;5.97;;;;;;;;;;5031973;28;20422;-68
2022/12/20 10:51:58;;;;;;;15.03;7.47;;;;;;;;;;5050197;28;20053;-68
2022/12/20 10:54:28;;;;;;;12.23;6.87;;;;;;;;;;5049991;28;20511;-67
2022/12/20 10:56:59;;;;;;;15.10;8.07;;;;;;;;;;5048473;28;20045;-68
2022/12/20 10:59:34;;;;;;;11.80;6.83;;;;;;;;;;5049856;28;20051;-67
2022/12/20 11:02:00;;;;;;;10.67;6.70;;;;;;;;;;5050031;28;20406;-67
2022/12/20 11:04:34;;;;;;;15.23;7.03;;;;;;;;;;5048338;28;20049;-67
2022/12/20 11:07:20;;;;;;;16.03;8.30;;;;;;;;;;5049921;28;20040;-67
2022/12/20 11:09:53;;;;;;;6.93;3.87;;;;;;;;;;5049900;28;20174;-68
2022/12/20 11:12:19;;;;;;;14.83;7.03;;;;;;;;;;5049917;28;20079;-67
2022/12/20 11:14:47;;;;;;;11.53;6.77;;;;;;;;;;5048682;28;20458;-67
2022/12/20 11:17:13;;;;;;;11.67;6.83;;;;;;;;;;5048172;28;20049;-68
2022/12/20 11:19:55;;;;;;;13.77;6.17;;;;;;;;;;5049600;28;20052;-67
2022/12/20 11:22:40;;;;;;;15.57;7.50;;;;;;;;;;5049590;28;20048;-67
2022/12/20 11:25:18;;;;;;;12.83;6.40;;;;;;;;;;5047831;28;20049;-67
2022/12/20 11:27:50;;;;;;;12.83;6.27;;;;;;;;;;5049461;28;20402;-69
2022/12/20 11:30:20;;;;;;;13.40;6.97;;;;;;;;;;5048746;28;20048;-67
2022/12/20 11:33:06;;;;;;;14.33;7.27;;;;;;;;;;5049237;28;20037;-68
2022/12/20 11:35:35;;;;;;;10.90;5.97;;;;;;;;;;5049511;28;20414;-67
2022/12/20 11:38:19;;;;;;;12.10;5.90;;;;;;;;;;5048263;28;20053;-67
2022/12/20 11:41:04;;;;;;;15.30;6.80;;;;;;;;;;5049062;28;20152;-67
2022/12/20 11:43:40;;;;;;;13.00;6.77;;;;;;;;;;5049172;28;20053;-67
2022/12/20 11:46:42;;;;;;;12.73;6.60;;;;;;;;;;5047732;28;20052;-67
2022/12/20 11:49:18;;;;;;;9.37;5.57;;;;;;;;;;5026000;28;20519;-67
2022/12/20 11:52:05;;;;;;;11.00;6.63;;;;;;;;;;5042215;28;20089;-68
2022/12/20 11:54:43;;;;;;;12.00;6.03;;;;;;;;;;5049075;28;20418;-67
2022/12/20 11:57:22;;;;;;;11.67;6.53;;;;;;;;;;5048664;28;20071;-68
2022/12/20 11:59:57;;;;;;;9.57;6.33;;;;;;;;;;5047057;28;20490;-68
2022/12/20 12:02:32;;;;;;;11.17;6.43;;;;;;;;;;5048922;28;20049;-68
2022/12/20 12:05:00;;;;;;;18.00;7.90;;;;;;;;;;5047641;28;20060;-67
2022/12/20 12:07:29;;;;;;;9.57;5.37;;;;;;;;;;5048691;28;20063;-68
2022/12/20 12:10:24;;;;;;;9.73;6.30;;;;;;;;;;5048723;28;20060;-67
2022/12/20 12:13:08;;;;;;;13.83;6.80;;;;;;;;;;5043512;28;20415;-68
2022/12/20 12:15:53;;;;;;;9.63;5.90;;;;;;;;;;5047223;28;20154;-67
2022/12/20 12:18:21;;;;;;;12.07;7.23;;;;;;;;;;5048528;28;20140;-68
2022/12/20 12:20:59;;;;;;;12.80;7.47;;;;;;;;;;5048605;28;20124;-67
2022/12/20 12:23:43;;;;;;;11.10;6.77;;;;;;;;;;5047916;28;20052;-67
2022/12/20 12:26:24;;;;;;;17.33;8.63;;;;;;;;;;5048368;28;20253;-67
2022/12/20 12:28:54;;;;;;;14.90;7.90;;;;;;;;;;5048274;28;20052;-67
2022/12/20 12:31:23;;;;;;;11.40;7.20;;;;;;;;;;5048208;28;20439;-67
2022/12/20 12:33:55;;;;;;;12.40;7.13;;;;;;;;;;5047125;28;20041;-67
2022/12/20 12:36:40;;;;;;;12.73;7.60;;;;;;;;;;5047772;28;20131;-67
2022/12/20 12:39:19;;;;;;;13.67;7.80;;;;;;;;;;5048297;28;20059;-67
2022/12/20 12:41:48;;;;;;;15.97;7.70;;;;;;;;;;5047391;28;20057;-67
2022/12/20 12:44:23;;;;;;;13.57;8.50;;;;;;;;;;5047023;28;20426;-67
2022/12/20 12:46:54;;;;;;;13.37;7.90;;;;;;;;;;5047953;28;20061;-67
2022/12/20 12:49:22;;;;;;;14.03;9.00;;;;;;;;;;5048008;28;20142;-67
2022/12/20 12:51:52;;;;;;;11.17;8.23;;;;;;;;;;5046074;28;20056;-67
2022/12/20 12:54:21;;;;;;;17.27;10.20;;;;;;;;;;5047964;28;20043;-67
2022/12/20 12:56:48;;;;;;;16.40;8.83;;;;;;;;;;5047824;28;20049;-67
2022/12/20 12:59:20;;;;;;;12.90;9.40;;;;;;;;;;5029426;28;20068;-67
2022/12/20 13:01:50;;;;;;;14.23;8.90;;;;;;;;;;5047705;28;20413;-67
2022/12/20 13:04:19;;;;;;;16.00;10.33;;;;;;;;;;5046590;28;20049;-67
2022/12/20 13:06:48;;;;;;;16.60;9.00;;;;;;;;;;5047896;28;20057;-67
2022/12/20 13:09:34;;;;;;;15.97;9.23;;;;;;;;;;5047769;28;20106;-67
2022/12/20 13:12:20;;;;;;;14.23;9.10;;;;;;;;;;5047356;28;20205;-67
2022/12/20 13:14:48;;;;;;;12.83;9.50;;;;;;;;;;5046140;28;20049;-67
2022/12/20 13:17:17;;;;;;;19.30;12.10;;;;;;;;;;5047894;28;20089;-67
2022/12/20 13:19:54;;;;;;;15.93;10.20;;;;;;;;;;5047999;28;20060;-67
2022/12/20 13:22:22;;;;;;;15.33;10.73;;;;;;;;;;5047132;28;20152;-67
2022/12/20 13:25:23;;;;;;;15.10;10.47;;;;;;;;;;5047452;28;20048;-67
2022/12/20 13:27:49;;;;;;;19.93;12.73;;;;;;;;;;5047623;28;20049;-67
2022/12/20 13:30:20;;;;;;;23.27;13.67;;;;;;;;;;5047636;28;20045;-67
2022/12/20 13:32:46;;;;;;;23.10;11.80;;;;;;;;;;5046172;28;20049;-67
2022/12/20 13:35:25;;;;;;;20.43;11.07;;;;;;;;;;5047081;28;20392;-67
2022/12/20 13:38:03;;;;;;;15.80;10.60;;;;;;;;;;5047484;28;20140;-67
2022/12/20 13:40:35;;;;;;;18.83;12.67;;;;;;;;;;5047318;28;20114;-67
2022/12/20 13:43:16;;;;;;;22.03;12.03;;;;;;;;;;5046533;28;20488;-67
2022/12/20 13:45:45;;;;;;;21.73;12.80;;;;;;;;;;5045529;28;20391;-67
2022/12/20 13:48:14;;;;;;;18.70;11.83;;;;;;;;;;5047139;28;20045;-67
2022/12/20 13:50:49;;;;;;;20.73;13.50;;;;;;;;;;5046123;28;20135;-67
2022/12/20 13:53:17;;;;;;;23.87;13.83;;;;;;;;;;5050478;28;20080;-67
2022/12/20 13:55:44;;;;;;;17.53;12.23;;;;;;;;;;5051270;28;20399;-67
2022/12/20 13:58:14;;;;;;;18.63;11.87;;;;;;;;;;5050990;28;20048;-67
2022/12/20 14:00:40;;;;;;;18.97;12.93;;;;;;;;;;5051281;28;20045;-68
2022/12/20 14:03:13;;;;;;;21.47;12.73;;;;;;;;;;5051274;28;20418;-67
2022/12/20 14:05:40;;;;;;;20.98;13.27;;;;;;;;;;5051466;28;20045;-67
2022/12/20 14:08:13;;;;;;;23.83;14.10;;;;;;;;;;5049779;28;20053;-67
2022/12/20 14:10:39;;;;;;;25.88;15.23;;;;;;;;;;5050689;28;20045;-67
2022/12/20 14:13:19;;;;;;;25.13;14.30;;;;;;;;;;5049523;28;20052;-67
2022/12/20 14:15:45;;;;;;;21.80;14.77;;;;;;;;;;5051025;28;20102;-67
2022/12/20 14:18:22;;;;;;;17.30;13.10;;;;;;;;;;5050609;28;20087;-67
2022/12/20 14:20:57;;;;;;;22.17;13.67;;;;;;;;;;5050273;28;20060;-67
2022/12/20 14:23:25;;;;;;;20.00;12.77;;;;;;;;;;5049388;28;20057;-67
2022/12/20 14:26:00;;;;;;;26.47;15.67;;;;;;;;;;5050973;28;20459;-67
2022/12/20 14:28:44;;;;;;;24.00;14.93;;;;;;;;;;5050457;28;20109;-68
2022/12/20 14:31:29;;;;;;;23.93;15.17;;;;;;;;;;5050196;28;20049;-67
2022/12/20 14:34:05;;;;;;;18.67;13.73;;;;;;;;;;5050535;28;20140;-67
2022/12/20 14:36:33;;;;;;;22.63;13.50;;;;;;;;;;5049168;28;20083;-68
2022/12/20 14:38:59;;;;;;;20.77;13.87;;;;;;;;;;5050516;28;20553;-67
2022/12/20 14:41:34;;;;;;;17.50;12.93;;;;;;;;;;5050318;28;20045;-67
2022/12/20 14:44:06;;;;;;;19.37;13.23;;;;;;;;;;5050349;28;20491;-68
2022/12/20 14:46:33;;;;;;;18.87;13.40;;;;;;;;;;5049710;28;20053;-67
2022/12/20 14:49:17;;;;;;;16.30;13.43;;;;;;;;;;5048923;28;20076;-67
2022/12/20 14:51:43;;;;;;;35.67;18.37;;;;;;;;;;5050304;28;20382;-67
2022/12/20 14:54:16;;;;;;;17.13;13.67;;;;;;;;;;5050314;28;20131;-67
2022/12/20 14:56:52;;;;;;;19.08;14.02;;;;;;;;;;5048884;28;20056;-67
2022/12/20 14:59:26;;;;;;;25.50;15.27;;;;;;;;;;5049616;28;20056;-67